sensor_id;sensor_type;location;lat;lon;timestamp;pressure;altitude;pressure_sealevel;temperature;humidity
6464;BME280;3265;42.694;23.282;2022-09-04T00:01:02;95092.06;;;16.75;100.00
6464;BME280;3265;42.694;23.282;2022-09-04T00:03:38;95101.78;;;16.75;100.00
6464;BME280;3265;42.694;23.282;2022-09-04T00:06:12;95103.69;;;16.79;100.00
6464;BME280;3265;42.694;23.282;2022-09-04T00:09:02;95106.31;;;16.79;100.00
6464;BME280;3265;42.694;23.282;2022-09-04T00:11:38;95105.81;;;16.82;100.00
6464;BME280;3265;42.694;23.282;2022-09-04T00:14:14;95107.66;;;16.82;100.00
6464;BME280;3265;42.694;23.282;2022-09-04T00:16:47;95108.50;;;16.87;100.00
6464;BME280;3265;42.694;23.282;2022-09-04T00:19:22;95110.06;;;16.88;100.00
6464;BME280;3265;42.694;23.282;2022-09-04T00:21:56;95114.78;;;16.86;100.00
6464;BME280;3265;42.694;23.282;2022-09-04T00:24:27;95111.06;;;16.82;100.00
6464;BME280;3265;42.694;23.282;2022-09-04T00:26:59;95110.44;;;16.75;100.00
6464;BME280;3265;42.694;23.282;2022-09-04T00:29:36;95111.97;;;16.71;100.00
6464;BME280;3265;42.694;23.282;2022-09-04T00:32:12;95110.31;;;16.65;100.00
6464;BME280;3265;42.694;23.282;2022-09-04T00:35:01;95115.81;;;16.64;100.00
6464;BME280;3265;42.694;23.282;2022-09-04T00:37:34;95118.97;;;16.66;100.00
6464;BME280;3265;42.694;23.282;2022-09-04T00:40:06;95106.13;;;16.64;100.00
6464;BME280;3265;42.694;23.282;2022-09-04T00:42:51;95108.91;;;16.58;100.00
6464;BME280;3265;42.694;23.282;2022-09-04T00:45:38;95110.03;;;16.62;100.00
6464;BME280;3265;42.694;23.282;2022-09-04T00:48:25;95110.19;;;16.55;100.00
6464;BME280;3265;42.694;23.282;2022-09-04T00:51:07;95105.00;;;16.60;100.00
6464;BME280;3265;42.694;23.282;2022-09-04T00:53:58;95101.09;;;16.63;100.00
6464;BME280;3265;42.694;23.282;2022-09-04T00:56:45;95102.69;;;16.64;100.00
6464;BME280;3265;42.694;23.282;2022-09-04T00:59:26;95091.09;;;16.60;100.00
6464;BME280;3265;42.694;23.282;2022-09-04T01:02:10;95098.56;;;16.51;100.00
6464;BME280;3265;42.694;23.282;2022-09-04T01:04:41;95099.28;;;16.46;100.00
6464;BME280;3265;42.694;23.282;2022-09-04T01:07:28;95098.44;;;16.41;100.00
6464;BME280;3265;42.694;23.282;2022-09-04T01:10:23;95107.09;;;16.41;100.00
6464;BME280;3265;42.694;23.282;2022-09-04T01:13:00;95105.34;;;16.47;100.00
6464;BME280;3265;42.694;23.282;2022-09-04T01:15:35;95121.50;;;16.39;100.00
6464;BME280;3265;42.694;23.282;2022-09-04T01:18:07;95119.16;;;16.42;100.00
6464;BME280;3265;42.694;23.282;2022-09-04T01:21:13;95114.41;;;16.39;100.00
6464;BME280;3265;42.694;23.282;2022-09-04T01:23:58;95115.22;;;16.40;100.00
6464;BME280;3265;42.694;23.282;2022-09-04T01:26:36;95109.34;;;16.33;100.00
6464;BME280;3265;42.694;23.282;2022-09-04T01:29:15;95113.56;;;16.34;100.00
6464;BME280;3265;42.694;23.282;2022-09-04T01:31:49;95110.38;;;16.32;100.00
6464;BME280;3265;42.694;23.282;2022-09-04T01:34:32;95098.59;;;16.34;100.00
6464;BME280;3265;42.694;23.282;2022-09-04T01:37:09;95097.44;;;16.25;100.00
6464;BME280;3265;42.694;23.282;2022-09-04T01:39:42;95092.84;;;16.16;100.00
6464;BME280;3265;42.694;23.282;2022-09-04T01:42:16;95100.78;;;16.21;100.00
6464;BME280;3265;42.694;23.282;2022-09-04T01:44:46;95092.97;;;16.26;100.00
6464;BME280;3265;42.694;23.282;2022-09-04T01:47:16;95098.22;;;16.26;100.00
6464;BME280;3265;42.694;23.282;2022-09-04T01:49:53;95095.06;;;16.24;100.00
6464;BME280;3265;42.694;23.282;2022-09-04T01:52:35;95095.00;;;16.19;100.00
6464;BME280;3265;42.694;23.282;2022-09-04T01:55:18;95091.31;;;16.20;100.00
6464;BME280;3265;42.694;23.282;2022-09-04T01:57:58;95095.38;;;16.11;100.00
6464;BME280;3265;42.694;23.282;2022-09-04T02:00:33;95092.38;;;16.19;100.00
6464;BME280;3265;42.694;23.282;2022-09-04T02:03:11;95089.81;;;16.24;100.00
6464;BME280;3265;42.694;23.282;2022-09-04T02:05:52;95087.63;;;16.16;100.00
6464;BME280;3265;42.694;23.282;2022-09-04T02:08:33;95084.69;;;16.12;100.00
6464;BME280;3265;42.694;23.282;2022-09-04T02:11:06;95089.66;;;16.14;100.00
6464;BME280;3265;42.694;23.282;2022-09-04T02:13:41;95086.25;;;16.13;100.00
6464;BME280;3265;42.694;23.282;2022-09-04T02:16:14;95083.00;;;16.06;100.00
6464;BME280;3265;42.694;23.282;2022-09-04T02:18:52;95080.88;;;16.03;100.00
6464;BME280;3265;42.694;23.282;2022-09-04T02:21:29;95083.50;;;16.03;100.00
6464;BME280;3265;42.694;23.282;2022-09-04T02:24:05;95090.34;;;16.04;100.00
6464;BME280;3265;42.694;23.282;2022-09-04T02:26:38;95073.47;;;16.00;100.00
6464;BME280;3265;42.694;23.282;2022-09-04T02:29:14;95072.22;;;16.03;100.00
6464;BME280;3265;42.694;23.282;2022-09-04T02:31:51;95069.53;;;15.98;100.00
6464;BME280;3265;42.694;23.282;2022-09-04T02:34:28;95070.00;;;15.95;100.00
6464;BME280;3265;42.694;23.282;2022-09-04T02:37:03;95065.56;;;15.95;100.00
6464;BME280;3265;42.694;23.282;2022-09-04T02:39:42;95055.72;;;15.85;100.00
6464;BME280;3265;42.694;23.282;2022-09-04T02:42:15;95078.88;;;15.94;100.00
6464;BME280;3265;42.694;23.282;2022-09-04T02:44:57;95075.97;;;15.90;100.00
6464;BME280;3265;42.694;23.282;2022-09-04T02:47:32;95075.06;;;15.84;100.00
6464;BME280;3265;42.694;23.282;2022-09-04T02:50:10;95081.84;;;15.80;100.00
6464;BME280;3265;42.694;23.282;2022-09-04T02:52:54;95090.75;;;15.79;100.00
6464;BME280;3265;42.694;23.282;2022-09-04T02:55:33;95091.78;;;15.78;100.00
6464;BME280;3265;42.694;23.282;2022-09-04T02:58:15;95089.38;;;15.77;100.00
6464;BME280;3265;42.694;23.282;2022-09-04T03:00:54;95089.38;;;15.77;100.00
6464;BME280;3265;42.694;23.282;2022-09-04T03:03:26;95084.06;;;15.72;100.00
6464;BME280;3265;42.694;23.282;2022-09-04T03:06:00;95096.72;;;15.75;100.00
6464;BME280;3265;42.694;23.282;2022-09-04T03:08:32;95100.69;;;15.77;100.00
6464;BME280;3265;42.694;23.282;2022-09-04T03:11:05;95102.97;;;15.57;100.00
6464;BME280;3265;42.694;23.282;2022-09-04T03:13:41;95103.78;;;15.58;100.00
6464;BME280;3265;42.694;23.282;2022-09-04T03:16:18;95100.81;;;15.54;100.00
6464;BME280;3265;42.694;23.282;2022-09-04T03:18:58;95105.75;;;15.51;100.00
6464;BME280;3265;42.694;23.282;2022-09-04T03:21:34;95099.34;;;15.58;100.00
6464;BME280;3265;42.694;23.282;2022-09-04T03:24:07;95093.38;;;15.63;100.00
6464;BME280;3265;42.694;23.282;2022-09-04T03:26:38;95091.41;;;15.42;100.00
6464;BME280;3265;42.694;23.282;2022-09-04T03:29:11;95087.63;;;15.21;100.00
6464;BME280;3265;42.694;23.282;2022-09-04T03:31:56;95099.31;;;15.30;100.00
6464;BME280;3265;42.694;23.282;2022-09-04T03:34:40;95104.09;;;15.33;100.00
6464;BME280;3265;42.694;23.282;2022-09-04T03:37:21;95109.59;;;15.31;100.00
6464;BME280;3265;42.694;23.282;2022-09-04T03:40:00;95104.06;;;15.16;100.00
6464;BME280;3265;42.694;23.282;2022-09-04T03:42:37;95105.63;;;15.29;100.00
6464;BME280;3265;42.694;23.282;2022-09-04T03:45:18;95104.91;;;15.33;100.00
6464;BME280;3265;42.694;23.282;2022-09-04T03:47:59;95118.47;;;15.30;100.00
6464;BME280;3265;42.694;23.282;2022-09-04T03:50:34;95120.75;;;14.99;100.00
6464;BME280;3265;42.694;23.282;2022-09-04T03:53:14;95131.41;;;14.69;100.00
6464;BME280;3265;42.694;23.282;2022-09-04T03:56:01;95132.59;;;14.61;100.00
6464;BME280;3265;42.694;23.282;2022-09-04T03:58:36;95127.47;;;14.32;100.00
6464;BME280;3265;42.694;23.282;2022-09-04T04:01:11;95132.84;;;14.13;100.00
6464;BME280;3265;42.694;23.282;2022-09-04T04:03:55;95141.00;;;14.17;100.00
6464;BME280;3265;42.694;23.282;2022-09-04T04:06:31;95141.59;;;14.31;100.00
6464;BME280;3265;42.694;23.282;2022-09-04T04:09:33;95157.06;;;14.32;100.00
6464;BME280;3265;42.694;23.282;2022-09-04T04:15:12;95173.63;;;14.14;100.00
6464;BME280;3265;42.694;23.282;2022-09-04T04:17:54;95161.00;;;14.11;100.00
6464;BME280;3265;42.694;23.282;2022-09-04T04:20:35;95168.28;;;14.21;100.00
6464;BME280;3265;42.694;23.282;2022-09-04T04:26:06;95185.13;;;14.25;100.00
6464;BME280;3265;42.694;23.282;2022-09-04T04:28:58;95170.91;;;14.21;100.00
6464;BME280;3265;42.694;23.282;2022-09-04T04:31:43;95180.44;;;14.15;100.00
6464;BME280;3265;42.694;23.282;2022-09-04T04:34:40;95187.16;;;14.23;100.00
6464;BME280;3265;42.694;23.282;2022-09-04T04:37:23;95196.50;;;14.31;100.00
6464;BME280;3265;42.694;23.282;2022-09-04T04:40:01;95184.44;;;14.30;100.00
6464;BME280;3265;42.694;23.282;2022-09-04T04:42:39;95179.69;;;14.38;100.00
6464;BME280;3265;42.694;23.282;2022-09-04T04:45:23;95173.53;;;14.44;100.00
6464;BME280;3265;42.694;23.282;2022-09-04T04:48:35;95179.56;;;14.56;100.00
6464;BME280;3265;42.694;23.282;2022-09-04T04:51:16;95180.22;;;14.63;100.00
6464;BME280;3265;42.694;23.282;2022-09-04T04:53:54;95182.28;;;14.73;100.00
6464;BME280;3265;42.694;23.282;2022-09-04T04:56:25;95182.72;;;14.82;100.00
6464;BME280;3265;42.694;23.282;2022-09-04T04:59:02;95185.66;;;14.97;100.00
6464;BME280;3265;42.694;23.282;2022-09-04T05:01:43;95196.75;;;15.04;100.00
6464;BME280;3265;42.694;23.282;2022-09-04T05:04:20;95185.25;;;15.16;100.00
6464;BME280;3265;42.694;23.282;2022-09-04T05:06:53;95183.88;;;15.14;100.00
6464;BME280;3265;42.694;23.282;2022-09-04T05:09:33;95183.22;;;15.07;100.00
6464;BME280;3265;42.694;23.282;2022-09-04T05:12:09;95174.22;;;15.14;100.00
6464;BME280;3265;42.694;23.282;2022-09-04T05:14:47;95182.03;;;15.26;100.00
6464;BME280;3265;42.694;23.282;2022-09-04T05:17:24;95170.97;;;15.24;100.00
6464;BME280;3265;42.694;23.282;2022-09-04T05:22:46;95183.47;;;15.33;100.00
6464;BME280;3265;42.694;23.282;2022-09-04T05:25:22;95187.78;;;15.40;100.00
6464;BME280;3265;42.694;23.282;2022-09-04T05:27:57;95201.88;;;15.50;100.00
6464;BME280;3265;42.694;23.282;2022-09-04T05:30:37;95203.88;;;15.60;100.00
6464;BME280;3265;42.694;23.282;2022-09-04T05:33:14;95196.03;;;15.60;100.00
6464;BME280;3265;42.694;23.282;2022-09-04T05:35:48;95200.25;;;15.61;100.00
6464;BME280;3265;42.694;23.282;2022-09-04T05:38:21;95203.50;;;15.68;100.00
6464;BME280;3265;42.694;23.282;2022-09-04T05:41:10;95210.00;;;15.65;100.00
6464;BME280;3265;42.694;23.282;2022-09-04T05:43:52;95204.78;;;15.65;100.00
6464;BME280;3265;42.694;23.282;2022-09-04T05:46:36;95205.19;;;15.74;100.00
6464;BME280;3265;42.694;23.282;2022-09-04T05:49:15;95201.69;;;15.85;100.00
6464;BME280;3265;42.694;23.282;2022-09-04T05:52:05;95204.34;;;15.57;100.00
6464;BME280;3265;42.694;23.282;2022-09-04T05:55:08;95197.78;;;15.71;100.00
6464;BME280;3265;42.694;23.282;2022-09-04T05:57:46;95190.66;;;15.83;100.00
6464;BME280;3265;42.694;23.282;2022-09-04T06:00:16;95189.31;;;15.97;100.00
6464;BME280;3265;42.694;23.282;2022-09-04T06:03:07;95192.66;;;16.09;100.00
6464;BME280;3265;42.694;23.282;2022-09-04T06:05:59;95170.88;;;16.09;100.00
6464;BME280;3265;42.694;23.282;2022-09-04T06:08:39;95175.25;;;16.20;100.00
6464;BME280;3265;42.694;23.282;2022-09-04T06:11:35;95181.16;;;16.27;100.00
6464;BME280;3265;42.694;23.282;2022-09-04T06:14:27;95181.16;;;16.27;100.00
6464;BME280;3265;42.694;23.282;2022-09-04T06:17:06;95180.56;;;16.25;100.00
6464;BME280;3265;42.694;23.282;2022-09-04T06:19:48;95181.22;;;16.32;100.00
6464;BME280;3265;42.694;23.282;2022-09-04T06:22:39;95170.63;;;16.43;100.00
6464;BME280;3265;42.694;23.282;2022-09-04T06:25:19;95178.34;;;16.50;100.00
6464;BME280;3265;42.694;23.282;2022-09-04T06:28:27;95178.44;;;16.55;100.00
6464;BME280;3265;42.694;23.282;2022-09-04T06:31:22;95177.47;;;16.61;100.00
6464;BME280;3265;42.694;23.282;2022-09-04T06:34:01;95172.09;;;16.73;100.00
6464;BME280;3265;42.694;23.282;2022-09-04T06:36:48;95173.50;;;16.80;100.00
6464;BME280;3265;42.694;23.282;2022-09-04T06:39:36;95183.28;;;16.85;100.00
6464;BME280;3265;42.694;23.282;2022-09-04T06:42:27;95181.38;;;16.80;100.00
6464;BME280;3265;42.694;23.282;2022-09-04T06:45:10;95166.38;;;16.76;100.00
6464;BME280;3265;42.694;23.282;2022-09-04T06:47:55;95167.72;;;16.78;100.00
6464;BME280;3265;42.694;23.282;2022-09-04T06:50:30;95182.81;;;16.88;100.00
6464;BME280;3265;42.694;23.282;2022-09-04T06:53:08;95177.78;;;16.86;100.00
6464;BME280;3265;42.694;23.282;2022-09-04T06:55:42;95187.31;;;16.92;100.00
6464;BME280;3265;42.694;23.282;2022-09-04T06:58:27;95168.19;;;16.97;100.00
6464;BME280;3265;42.694;23.282;2022-09-04T07:01:00;95172.28;;;17.10;100.00
6464;BME280;3265;42.694;23.282;2022-09-04T07:03:41;95177.59;;;17.15;100.00
6464;BME280;3265;42.694;23.282;2022-09-04T07:06:13;95164.06;;;17.23;100.00
6464;BME280;3265;42.694;23.282;2022-09-04T07:08:53;95170.88;;;17.24;100.00
6464;BME280;3265;42.694;23.282;2022-09-04T07:11:36;95165.13;;;17.27;100.00
6464;BME280;3265;42.694;23.282;2022-09-04T07:14:43;95168.09;;;17.35;100.00
6464;BME280;3265;42.694;23.282;2022-09-04T07:17:19;95174.66;;;17.33;100.00
6464;BME280;3265;42.694;23.282;2022-09-04T07:20:10;95180.22;;;17.36;100.00
6464;BME280;3265;42.694;23.282;2022-09-04T07:22:52;95175.47;;;17.33;100.00
6464;BME280;3265;42.694;23.282;2022-09-04T07:25:23;95174.78;;;17.43;100.00
6464;BME280;3265;42.694;23.282;2022-09-04T07:28:09;95175.91;;;17.52;100.00
6464;BME280;3265;42.694;23.282;2022-09-04T07:30:42;95174.41;;;17.56;100.00
6464;BME280;3265;42.694;23.282;2022-09-04T07:33:14;95176.28;;;17.61;100.00
6464;BME280;3265;42.694;23.282;2022-09-04T07:35:49;95175.53;;;17.65;100.00
6464;BME280;3265;42.694;23.282;2022-09-04T07:38:28;95181.94;;;17.74;100.00
6464;BME280;3265;42.694;23.282;2022-09-04T07:41:06;95186.56;;;17.89;100.00
6464;BME280;3265;42.694;23.282;2022-09-04T07:43:39;95197.94;;;17.99;100.00
6464;BME280;3265;42.694;23.282;2022-09-04T07:46:17;95189.53;;;17.97;100.00
6464;BME280;3265;42.694;23.282;2022-09-04T07:48:51;95211.09;;;17.99;100.00
6464;BME280;3265;42.694;23.282;2022-09-04T07:51:26;95199.47;;;17.95;100.00
6464;BME280;3265;42.694;23.282;2022-09-04T07:54:16;95202.22;;;18.05;100.00
6464;BME280;3265;42.694;23.282;2022-09-04T07:57:09;95206.38;;;18.01;100.00
6464;BME280;3265;42.694;23.282;2022-09-04T07:59:58;95209.94;;;18.17;100.00
6464;BME280;3265;42.694;23.282;2022-09-04T08:02:44;95204.16;;;18.20;100.00
6464;BME280;3265;42.694;23.282;2022-09-04T08:05:21;95207.03;;;18.19;100.00
6464;BME280;3265;42.694;23.282;2022-09-04T08:08:07;95214.50;;;18.27;100.00
6464;BME280;3265;42.694;23.282;2022-09-04T08:10:48;95219.81;;;18.37;100.00
6464;BME280;3265;42.694;23.282;2022-09-04T08:13:34;95224.09;;;18.48;100.00
6464;BME280;3265;42.694;23.282;2022-09-04T08:16:07;95217.28;;;18.47;100.00
6464;BME280;3265;42.694;23.282;2022-09-04T08:18:55;95217.78;;;18.44;100.00
6464;BME280;3265;42.694;23.282;2022-09-04T08:21:28;95215.75;;;18.51;100.00
6464;BME280;3265;42.694;23.282;2022-09-04T08:24:10;95220.53;;;18.59;100.00
6464;BME280;3265;42.694;23.282;2022-09-04T08:26:53;95213.22;;;18.66;100.00
6464;BME280;3265;42.694;23.282;2022-09-04T08:29:41;95218.53;;;18.76;100.00
6464;BME280;3265;42.694;23.282;2022-09-04T08:32:24;95211.50;;;18.87;100.00
6464;BME280;3265;42.694;23.282;2022-09-04T08:35:16;95209.69;;;18.92;100.00
6464;BME280;3265;42.694;23.282;2022-09-04T08:41:14;95209.25;;;19.15;100.00
6464;BME280;3265;42.694;23.282;2022-09-04T08:50:16;95204.69;;;19.63;99.54
6464;BME280;3265;42.694;23.282;2022-09-04T08:56:07;95190.22;;;20.01;97.73
6464;BME280;3265;42.694;23.282;2022-09-04T09:02:30;95192.41;;;20.34;95.38
6464;BME280;3265;42.694;23.282;2022-09-04T09:08:29;95189.97;;;20.63;92.21
6464;BME280;3265;42.694;23.282;2022-09-04T09:11:22;95192.00;;;20.96;96.06
6464;BME280;3265;42.694;23.282;2022-09-04T09:16:54;95202.66;;;21.55;87.28
6464;BME280;3265;42.694;23.282;2022-09-04T09:19:42;95205.72;;;21.72;83.74
6464;BME280;3265;42.694;23.282;2022-09-04T09:22:20;95192.44;;;21.87;81.84
6464;BME280;3265;42.694;23.282;2022-09-04T09:25:15;95205.28;;;22.04;83.50
6464;BME280;3265;42.694;23.282;2022-09-04T09:28:25;95204.81;;;22.31;82.23
6464;BME280;3265;42.694;23.282;2022-09-04T09:37:29;95198.56;;;23.27;80.90
6464;BME280;3265;42.694;23.282;2022-09-04T09:40:14;95186.53;;;23.39;77.17
6464;BME280;3265;42.694;23.282;2022-09-04T09:49:34;95187.25;;;24.38;76.87
6464;BME280;3265;42.694;23.282;2022-09-04T09:55:36;95169.06;;;25.05;74.28
6464;BME280;3265;42.694;23.282;2022-09-04T09:58:48;95167.91;;;25.47;71.72
6464;BME280;3265;42.694;23.282;2022-09-04T10:01:31;95156.88;;;25.67;69.91
6464;BME280;3265;42.694;23.282;2022-09-04T10:04:28;95165.72;;;25.76;67.31
6464;BME280;3265;42.694;23.282;2022-09-04T10:07:49;95176.13;;;25.23;69.16
6464;BME280;3265;42.694;23.282;2022-09-04T10:10:36;95170.31;;;25.34;71.08
6464;BME280;3265;42.694;23.282;2022-09-04T10:13:39;95169.19;;;25.76;70.43
6464;BME280;3265;42.694;23.282;2022-09-04T10:16:52;95168.72;;;25.97;69.07
6464;BME280;3265;42.694;23.282;2022-09-04T10:19:50;95159.91;;;26.32;65.91
6464;BME280;3265;42.694;23.282;2022-09-04T10:22:33;95155.41;;;26.41;65.75
6464;BME280;3265;42.694;23.282;2022-09-04T10:34:40;95152.63;;;27.64;62.97
6464;BME280;3265;42.694;23.282;2022-09-04T10:37:29;95147.91;;;27.95;61.82
6464;BME280;3265;42.694;23.282;2022-09-04T10:40:09;95153.56;;;28.37;61.24
6464;BME280;3265;42.694;23.282;2022-09-04T10:43:24;95142.66;;;28.67;61.54
6464;BME280;3265;42.694;23.282;2022-09-04T10:46:00;95138.72;;;29.11;60.49
6464;BME280;3265;42.694;23.282;2022-09-04T10:48:56;95140.56;;;29.49;58.53
6464;BME280;3265;42.694;23.282;2022-09-04T10:51:48;95136.22;;;29.86;58.27
6464;BME280;3265;42.694;23.282;2022-09-04T10:55:01;95139.38;;;29.88;56.61
6464;BME280;3265;42.694;23.282;2022-09-04T10:57:56;95138.13;;;29.85;56.57
6464;BME280;3265;42.694;23.282;2022-09-04T11:00:34;95134.50;;;29.60;56.34
6464;BME280;3265;42.694;23.282;2022-09-04T11:03:40;95127.31;;;29.52;55.50
6464;BME280;3265;42.694;23.282;2022-09-04T11:06:40;95123.00;;;29.60;55.97
6464;BME280;3265;42.694;23.282;2022-09-04T11:09:30;95122.53;;;29.58;54.40
6464;BME280;3265;42.694;23.282;2022-09-04T11:12:18;95123.53;;;29.95;54.21
6464;BME280;3265;42.694;23.282;2022-09-04T11:18:00;95122.06;;;30.51;53.52
6464;BME280;3265;42.694;23.282;2022-09-04T11:30:03;95118.22;;;30.72;52.31
6464;BME280;3265;42.694;23.282;2022-09-04T11:32:53;95122.63;;;31.01;51.19
6464;BME280;3265;42.694;23.282;2022-09-04T11:35:53;95113.59;;;30.61;50.37
6464;BME280;3265;42.694;23.282;2022-09-04T11:38:47;95113.69;;;31.09;50.53
6464;BME280;3265;42.694;23.282;2022-09-04T11:41:50;95107.81;;;31.43;49.08
6464;BME280;3265;42.694;23.282;2022-09-04T11:59:50;95100.00;;;31.63;45.30
6464;BME280;3265;42.694;23.282;2022-09-04T12:05:20;95083.03;;;32.30;44.45
6464;BME280;3265;42.694;23.282;2022-09-04T12:08:18;95083.19;;;32.21;44.78
6464;BME280;3265;42.694;23.282;2022-09-04T12:11:01;95078.09;;;32.47;44.26
6464;BME280;3265;42.694;23.282;2022-09-04T12:14:00;95071.47;;;32.57;44.41
6464;BME280;3265;42.694;23.282;2022-09-04T12:16:51;95086.34;;;32.67;43.84
6464;BME280;3265;42.694;23.282;2022-09-04T12:19:47;95070.25;;;32.11;44.90
6464;BME280;3265;42.694;23.282;2022-09-04T12:22:39;95074.91;;;31.34;45.55
6464;BME280;3265;42.694;23.282;2022-09-04T12:25:33;95076.63;;;31.03;46.77
6464;BME280;3265;42.694;23.282;2022-09-04T12:34:31;95066.00;;;29.21;50.34
6464;BME280;3265;42.694;23.282;2022-09-04T12:37:19;95064.28;;;28.96;50.50
6464;BME280;3265;42.694;23.282;2022-09-04T12:40:08;95065.59;;;28.35;51.68
6464;BME280;3265;42.694;23.282;2022-09-04T12:42:44;95064.56;;;28.02;52.81
6464;BME280;3265;42.694;23.282;2022-09-04T12:45:20;95067.25;;;27.93;53.78
6464;BME280;3265;42.694;23.282;2022-09-04T12:47:55;95061.59;;;27.86;52.64
6464;BME280;3265;42.694;23.282;2022-09-04T12:50:43;95055.81;;;27.58;52.79
6464;BME280;3265;42.694;23.282;2022-09-04T12:56:18;95053.53;;;27.09;55.64
6464;BME280;3265;42.694;23.282;2022-09-04T12:59:09;95060.28;;;26.98;55.22
6464;BME280;3265;42.694;23.282;2022-09-04T13:01:48;95062.75;;;26.86;53.79
6464;BME280;3265;42.694;23.282;2022-09-04T13:04:23;95054.34;;;26.70;54.41
6464;BME280;3265;42.694;23.282;2022-09-04T13:07:05;95053.69;;;26.65;53.94
6464;BME280;3265;42.694;23.282;2022-09-04T13:09:41;95049.59;;;26.59;56.03
6464;BME280;3265;42.694;23.282;2022-09-04T13:12:22;95058.41;;;26.59;56.05
6464;BME280;3265;42.694;23.282;2022-09-04T13:15:05;95052.59;;;26.57;56.27
6464;BME280;3265;42.694;23.282;2022-09-04T13:17:42;95055.09;;;26.54;54.53
6464;BME280;3265;42.694;23.282;2022-09-04T13:20:18;95049.56;;;26.50;54.40
6464;BME280;3265;42.694;23.282;2022-09-04T13:22:57;95047.84;;;26.45;54.38
6464;BME280;3265;42.694;23.282;2022-09-04T13:25:36;95049.88;;;26.48;57.36
6464;BME280;3265;42.694;23.282;2022-09-04T13:28:19;95047.22;;;26.48;55.07
6464;BME280;3265;42.694;23.282;2022-09-04T13:30:55;95057.56;;;26.50;53.34
6464;BME280;3265;42.694;23.282;2022-09-04T13:33:37;95050.19;;;26.47;53.66
6464;BME280;3265;42.694;23.282;2022-09-04T13:36:25;95053.53;;;26.61;52.35
6464;BME280;3265;42.694;23.282;2022-09-04T13:39:21;95050.22;;;26.56;55.14
6464;BME280;3265;42.694;23.282;2022-09-04T13:44:57;95057.31;;;27.08;56.01
6464;BME280;3265;42.694;23.282;2022-09-04T13:47:29;95047.94;;;27.62;56.12
6464;BME280;3265;42.694;23.282;2022-09-04T13:50:05;95057.03;;;28.12;56.49
6464;BME280;3265;42.694;23.282;2022-09-04T13:52:43;95060.66;;;28.17;56.53
6464;BME280;3265;42.694;23.282;2022-09-04T13:55:15;95062.50;;;28.25;56.75
6464;BME280;3265;42.694;23.282;2022-09-04T13:57:47;95064.06;;;28.26;56.00
6464;BME280;3265;42.694;23.282;2022-09-04T14:00:23;95059.00;;;28.33;56.29
6464;BME280;3265;42.694;23.282;2022-09-04T14:02:54;95065.97;;;28.25;56.28
6464;BME280;3265;42.694;23.282;2022-09-04T14:05:26;95055.31;;;27.99;57.07
6464;BME280;3265;42.694;23.282;2022-09-04T14:07:57;95055.94;;;27.96;56.66
6464;BME280;3265;42.694;23.282;2022-09-04T14:10:41;95051.25;;;27.85;57.23
6464;BME280;3265;42.694;23.282;2022-09-04T14:13:22;95045.91;;;27.76;57.60
6464;BME280;3265;42.694;23.282;2022-09-04T14:16:03;95054.06;;;27.63;57.89
6464;BME280;3265;42.694;23.282;2022-09-04T14:18:45;95048.22;;;27.35;58.75
6464;BME280;3265;42.694;23.282;2022-09-04T14:21:20;95053.19;;;26.93;60.05
6464;BME280;3265;42.694;23.282;2022-09-04T14:23:57;95057.34;;;26.69;61.22
6464;BME280;3265;42.694;23.282;2022-09-04T14:26:34;95070.56;;;26.43;62.04
6464;BME280;3265;42.694;23.282;2022-09-04T14:29:13;95070.50;;;26.26;62.00
6464;BME280;3265;42.694;23.282;2022-09-04T14:31:51;95069.84;;;26.20;61.75
6464;BME280;3265;42.694;23.282;2022-09-04T14:34:26;95080.50;;;26.20;61.96
6464;BME280;3265;42.694;23.282;2022-09-04T14:37:08;95074.56;;;26.23;61.91
6464;BME280;3265;42.694;23.282;2022-09-04T14:39:46;95068.13;;;26.55;61.47
6464;BME280;3265;42.694;23.282;2022-09-04T14:42:31;95069.78;;;26.82;60.41
6464;BME280;3265;42.694;23.282;2022-09-04T14:45:15;95057.31;;;27.17;59.21
6464;BME280;3265;42.694;23.282;2022-09-04T14:47:47;95050.59;;;27.53;58.09
6464;BME280;3265;42.694;23.282;2022-09-04T14:50:21;95061.16;;;27.58;58.17
6464;BME280;3265;42.694;23.282;2022-09-04T14:52:54;95063.97;;;27.88;56.88
6464;BME280;3265;42.694;23.282;2022-09-04T14:55:25;95052.50;;;27.70;56.87
6464;BME280;3265;42.694;23.282;2022-09-04T14:57:55;95070.88;;;27.72;57.25
6464;BME280;3265;42.694;23.282;2022-09-04T15:00:25;95059.09;;;27.73;56.83
6464;BME280;3265;42.694;23.282;2022-09-04T15:03:01;95056.59;;;27.76;56.67
6464;BME280;3265;42.694;23.282;2022-09-04T15:05:33;95057.53;;;27.72;56.73
6464;BME280;3265;42.694;23.282;2022-09-04T15:08:05;95058.16;;;27.43;57.99
6464;BME280;3265;42.694;23.282;2022-09-04T15:10:42;95067.06;;;27.13;58.20
6464;BME280;3265;42.694;23.282;2022-09-04T15:13:32;95077.44;;;27.23;58.53
6464;BME280;3265;42.694;23.282;2022-09-04T15:16:13;95079.00;;;27.15;58.85
6464;BME280;3265;42.694;23.282;2022-09-04T15:18:53;95080.38;;;26.95;59.12
6464;BME280;3265;42.694;23.282;2022-09-04T15:21:26;95081.91;;;26.48;60.40
6464;BME280;3265;42.694;23.282;2022-09-04T15:24:00;95082.94;;;26.39;61.30
6464;BME280;3265;42.694;23.282;2022-09-04T15:26:32;95076.78;;;26.30;61.89
6464;BME280;3265;42.694;23.282;2022-09-04T15:29:06;95080.91;;;26.14;62.89
6464;BME280;3265;42.694;23.282;2022-09-04T15:31:39;95079.50;;;25.72;64.31
6464;BME280;3265;42.694;23.282;2022-09-04T15:34:10;95085.69;;;25.45;65.15
6464;BME280;3265;42.694;23.282;2022-09-04T15:36:44;95079.03;;;25.20;66.03
6464;BME280;3265;42.694;23.282;2022-09-04T15:39:22;95088.81;;;25.25;66.53
6464;BME280;3265;42.694;23.282;2022-09-04T15:41:52;95088.97;;;25.28;66.27
6464;BME280;3265;42.694;23.282;2022-09-04T15:44:22;95089.13;;;25.10;66.55
6464;BME280;3265;42.694;23.282;2022-09-04T15:46:57;95087.66;;;25.04;67.65
6464;BME280;3265;42.694;23.282;2022-09-04T15:49:38;95088.72;;;25.16;67.76
6464;BME280;3265;42.694;23.282;2022-09-04T15:52:18;95090.91;;;25.01;67.62
6464;BME280;3265;42.694;23.282;2022-09-04T15:57:47;95096.00;;;24.56;70.14
6464;BME280;3265;42.694;23.282;2022-09-04T16:00:22;95105.25;;;24.45;70.48
6464;BME280;3265;42.694;23.282;2022-09-04T16:02:55;95103.25;;;24.37;70.79